MSC Orchestra — 3EJF3 — position and weather

sailwx.info

Track history (hours):
 
Tides and Currents Weather Stations Pressure Air Temp Water Temp Dewpoint Dewpoint Depression Visibility Wind Speed Wind Dir Waves Ship Positions

MSC Orchestra

Last reported at 2015-Sep-05 07:32 UTC. Time now 2015-Sep-05 07:54 UTC.
Position N 54°20' E 010°10'.

Length 292 m; draft 7.7 m.

Type: Ship. MMSI: 372497000.

Date/timePositionNaut miles runAvg speedWind from/ knotsBaromVisibWave heightAir tempDewpointWater temp
2015-Sep-05 07:32N 54°20' E 010°10'0 0.0
2015-Sep-05 06:28N 54°20' E 010°10'0 0.0
2015-Sep-05 05:28N 54°20' E 010°10'0 0.3
2015-Sep-05 04:34N 54°20' E 010°10'10 9.7
2015-Sep-05 03:33N 54°29' E 010°17'1212.4
2015-Sep-05 02:33N 54°35' E 010°36'12412.3
2015-Sep-04 16:33N 56°33' E 011°39'1413.8
2015-Sep-04 15:33N 56°45' E 011°51'1413.9
2015-Sep-04 14:34N 56°58' E 011°44'1413.8
2015-Sep-04 13:33N 57°11' E 011°35'1413.5
2015-Sep-04 12:33N 57°24' E 011°27'1313.4
2015-Sep-04 11:33N 57°34' E 011°11'1413.7
2015-Sep-04 10:33N 57°44' E 010°52'1413.0
2015-Sep-04 09:29N 57°48' E 010°27'1313.5
2015-Sep-04 08:32N 57°50' E 010°03'14312.9
2015-Sep-03 21:26N 58°09' E 005°36'3711.7
2015-Sep-03 18:17N 58°43' E 005°12'1013.6
2015-Sep-03 17:34N 58°50' E 005°26'1413.7
2015-Sep-03 16:33N 59°03' E 005°34'7 6.7
2015-Sep-03 15:33N 58°58' E 005°44'0 0.0
2015-Sep-03 14:29N 58°58' E 005°44'0 0.0
2015-Sep-03 13:32N 58°58' E 005°44'0 0.0
2015-Sep-03 12:31N 58°58' E 005°44'0 0.0
2015-Sep-03 11:31N 58°58' E 005°44'0 0.0
2015-Sep-03 10:33N 58°58' E 005°44'0 0.0
2015-Sep-03 09:33N 58°58' E 005°44'3 3.1
2015-Sep-03 08:33N 59°01' E 005°40'1111.1
2015-Sep-03 07:34N 59°04' E 005°20'1111.3
2015-Sep-03 06:34N 59°05' E 004°58'1312.6
2015-Sep-03 05:34N 59°16' E 004°46'1312.0
2015-Sep-03 04:31N 59°29' E 004°44'  
2015-Aug-30 18:34N 58°22' E 005°23'1817.5
2015-Aug-30 17:33N 58°10' E 005°48'15617.3
2015-Aug-30 08:33N 57°50' E 010°39'1817.8
2015-Aug-30 07:33N 57°39' E 011°05'1817.8
2015-Aug-30 06:33N 57°26' E 011°27'1817.9
2015-Aug-30 05:33N 57°09' E 011°39'1817.8
2015-Aug-30 04:33N 56°52' E 011°50'1716.5
2015-Aug-30 03:33N 56°36' E 011°44'1918.8
2015-Aug-30 02:33N 56°20' E 011°26'1818.4
2015-Aug-30 01:33N 56°04' E 011°08'1817.7
2015-Aug-30 00:33N 55°50' E 010°50'1817.3
2015-Aug-29 23:31N 55°32' E 010°52'1616.9
2015-Aug-29 22:33N 55°17' E 011°04'1616.3
2015-Aug-29 21:33N 55°01' E 011°02'1616.1
2015-Aug-29 20:33N 54°46' E 010°53'1414.1
2015-Aug-29 19:33N 54°34' E 010°38'1515.3
2015-Aug-29 18:34N 54°27' E 010°15'7 7.3
2015-Aug-29 17:33N 54°20' E 010°10'0 0.0
2015-Aug-29 16:32N 54°20' E 010°10'0 0.0
2015-Aug-29 15:32N 54°20' E 010°10'0 0.0
2015-Aug-29 14:31N 54°20' E 010°10'0 0.0
2015-Aug-29 13:28N 54°20' E 010°10'0 0.0
2015-Aug-29 12:31N 54°20' E 010°10'0 0.0
2015-Aug-29 11:33N 54°20' E 010°10'0 0.0
2015-Aug-29 10:30N 54°20' E 010°10'0 0.0
2015-Aug-29 09:32N 54°20' E 010°10'0 0.0
2015-Aug-29 08:32N 54°20' E 010°10'0 0.0
2015-Aug-29 07:31N 54°20' E 010°10'0 0.0
2015-Aug-29 06:31N 54°20' E 010°10'0 0.0
2015-Aug-29 05:31N 54°20' E 010°10'0 0.2
2015-Aug-29 04:33N 54°20' E 010°10'9 9.3
2015-Aug-29 03:33N 54°29' E 010°16'1615.7
2015-Aug-29 02:33N 54°35' E 010°41'1716.7
2015-Aug-29 01:33N 54°37' E 011°10'1616.6
2015-Aug-29 00:33N 54°30' E 011°36'1716.7
2015-Aug-28 23:34N 54°26' E 012°04'4816.0
2015-Aug-28 20:33N 54°54' E 013°12'1818.0
2015-Aug-28 19:33N 54°59' E 013°41'1717.4
2015-Aug-28 18:33N 55°07' E 014°08'1817.7
2015-Aug-28 17:33N 55°21' E 014°28'1717.4
2015-Aug-28 16:33N 55°31' E 014°53'1717.2
2015-Aug-28 15:33N 55°38' E 015°21'34416.3
2015-Aug-27 18:29N 59°35' E 023°07'1617.7
2015-Aug-27 17:33N 59°40' E 023°38'1817.5
2015-Aug-27 16:33N 59°45' E 024°11'74 5.9
2015-Aug-27 04:05N 60°01' E 026°34'9215.5
2015-Aug-26 22:08N 59°60' E 029°39'911.4
2015-Aug-26 21:19N 59°56' E 029°56'7 9.5
2015-Aug-26 20:33N 59°57' E 030°10'1 0.6
2015-Aug-26 19:32N 59°57' E 030°12'0 0.0
2015-Aug-26 18:32N 59°57' E 030°12'0 0.0
2015-Aug-26 17:31N 59°57' E 030°12'0 0.0
2015-Aug-26 16:31N 59°57' E 030°12'0 0.0
2015-Aug-26 15:31N 59°57' E 030°12'0 0.0
2015-Aug-26 14:33N 59°57' E 030°12'0 0.0
2015-Aug-26 13:33N 59°57' E 030°12'0 0.0
2015-Aug-26 12:29N 59°57' E 030°12'0 0.0
2015-Aug-26 11:32N 59°57' E 030°12'0 0.0
2015-Aug-26 10:31N 59°57' E 030°12'0 0.0
2015-Aug-26 09:31N 59°57' E 030°12'0 0.0
2015-Aug-26 08:31N 59°57' E 030°12'  
Track history (hours):
 
Tides and Currents Weather Stations Pressure Air Temp Water Temp Dewpoint Dewpoint Depression Visibility Wind Speed Wind Dir Waves Ship Positions

MSC Orchestra

Last reported at 2015-Sep-05 07:32 UTC. Time now 2015-Sep-05 07:54 UTC.
Position N 54°20' E 010°10'.

Length 292 m; draft 7.7 m.

Type: Ship. MMSI: 372497000.

Date/timePositionNaut miles runAvg speedWind from/ knotsBaromVisibWave heightAir tempDewpointWater temp
2015-Sep-05 07:32N 54°20' E 010°10'0 0.0
2015-Sep-05 06:28N 54°20' E 010°10'0 0.0
2015-Sep-05 05:28N 54°20' E 010°10'0 0.3
2015-Sep-05 04:34N 54°20' E 010°10'10 9.7
2015-Sep-05 03:33N 54°29' E 010°17'1212.4
2015-Sep-05 02:33N 54°35' E 010°36'12412.3
2015-Sep-04 16:33N 56°33' E 011°39'1413.8
2015-Sep-04 15:33N 56°45' E 011°51'1413.9
2015-Sep-04 14:34N 56°58' E 011°44'1413.8
2015-Sep-04 13:33N 57°11' E 011°35'1413.5
2015-Sep-04 12:33N 57°24' E 011°27'1313.4
2015-Sep-04 11:33N 57°34' E 011°11'1413.7
2015-Sep-04 10:33N 57°44' E 010°52'1413.0
2015-Sep-04 09:29N 57°48' E 010°27'1313.5
2015-Sep-04 08:32N 57°50' E 010°03'14312.9
2015-Sep-03 21:26N 58°09' E 005°36'3711.7
2015-Sep-03 18:17N 58°43' E 005°12'1013.6
2015-Sep-03 17:34N 58°50' E 005°26'1413.7
2015-Sep-03 16:33N 59°03' E 005°34'7 6.7
2015-Sep-03 15:33N 58°58' E 005°44'0 0.0
2015-Sep-03 14:29N 58°58' E 005°44'0 0.0
2015-Sep-03 13:32N 58°58' E 005°44'0 0.0
2015-Sep-03 12:31N 58°58' E 005°44'0 0.0
2015-Sep-03 11:31N 58°58' E 005°44'0 0.0
2015-Sep-03 10:33N 58°58' E 005°44'0 0.0
2015-Sep-03 09:33N 58°58' E 005°44'3 3.1
2015-Sep-03 08:33N 59°01' E 005°40'1111.1
2015-Sep-03 07:34N 59°04' E 005°20'1111.3
2015-Sep-03 06:34N 59°05' E 004°58'1312.6
2015-Sep-03 05:34N 59°16' E 004°46'1312.0
2015-Sep-03 04:31N 59°29' E 004°44'  
2015-Aug-30 18:34N 58°22' E 005°23'1817.5
2015-Aug-30 17:33N 58°10' E 005°48'15617.3
2015-Aug-30 08:33N 57°50' E 010°39'1817.8
2015-Aug-30 07:33N 57°39' E 011°05'1817.8
2015-Aug-30 06:33N 57°26' E 011°27'1817.9
2015-Aug-30 05:33N 57°09' E 011°39'1817.8
2015-Aug-30 04:33N 56°52' E 011°50'1716.5
2015-Aug-30 03:33N 56°36' E 011°44'1918.8
2015-Aug-30 02:33N 56°20' E 011°26'1818.4
2015-Aug-30 01:33N 56°04' E 011°08'1817.7
2015-Aug-30 00:33N 55°50' E 010°50'1817.3
2015-Aug-29 23:31N 55°32' E 010°52'1616.9
2015-Aug-29 22:33N 55°17' E 011°04'1616.3
2015-Aug-29 21:33N 55°01' E 011°02'1616.1
2015-Aug-29 20:33N 54°46' E 010°53'1414.1
2015-Aug-29 19:33N 54°34' E 010°38'1515.3
2015-Aug-29 18:34N 54°27' E 010°15'7 7.3
2015-Aug-29 17:33N 54°20' E 010°10'0 0.0
2015-Aug-29 16:32N 54°20' E 010°10'0 0.0
2015-Aug-29 15:32N 54°20' E 010°10'0 0.0
2015-Aug-29 14:31N 54°20' E 010°10'0 0.0
2015-Aug-29 13:28N 54°20' E 010°10'0 0.0
2015-Aug-29 12:31N 54°20' E 010°10'0 0.0
2015-Aug-29 11:33N 54°20' E 010°10'0 0.0
2015-Aug-29 10:30N 54°20' E 010°10'0 0.0
2015-Aug-29 09:32N 54°20' E 010°10'0 0.0
2015-Aug-29 08:32N 54°20' E 010°10'0 0.0
2015-Aug-29 07:31N 54°20' E 010°10'0 0.0
2015-Aug-29 06:31N 54°20' E 010°10'0 0.0
2015-Aug-29 05:31N 54°20' E 010°10'0 0.2
2015-Aug-29 04:33N 54°20' E 010°10'9 9.3
2015-Aug-29 03:33N 54°29' E 010°16'1615.7
2015-Aug-29 02:33N 54°35' E 010°41'1716.7
2015-Aug-29 01:33N 54°37' E 011°10'1616.6
2015-Aug-29 00:33N 54°30' E 011°36'1716.7
2015-Aug-28 23:34N 54°26' E 012°04'4816.0
2015-Aug-28 20:33N 54°54' E 013°12'1818.0
2015-Aug-28 19:33N 54°59' E 013°41'1717.4
2015-Aug-28 18:33N 55°07' E 014°08'1817.7
2015-Aug-28 17:33N 55°21' E 014°28'1717.4
2015-Aug-28 16:33N 55°31' E 014°53'1717.2
2015-Aug-28 15:33N 55°38' E 015°21'34416.3
2015-Aug-27 18:29N 59°35' E 023°07'1617.7
2015-Aug-27 17:33N 59°40' E 023°38'1817.5
2015-Aug-27 16:33N 59°45' E 024°11'74 5.9
2015-Aug-27 04:05N 60°01' E 026°34'9215.5
2015-Aug-26 22:08N 59°60' E 029°39'911.4
2015-Aug-26 21:19N 59°56' E 029°56'7 9.5
2015-Aug-26 20:33N 59°57' E 030°10'1 0.6
2015-Aug-26 19:32N 59°57' E 030°12'0 0.0
2015-Aug-26 18:32N 59°57' E 030°12'0 0.0
2015-Aug-26 17:31N 59°57' E 030°12'0 0.0
2015-Aug-26 16:31N 59°57' E 030°12'0 0.0
2015-Aug-26 15:31N 59°57' E 030°12'0 0.0
2015-Aug-26 14:33N 59°57' E 030°12'0 0.0
2015-Aug-26 13:33N 59°57' E 030°12'0 0.0
2015-Aug-26 12:29N 59°57' E 030°12'0 0.0
2015-Aug-26 11:32N 59°57' E 030°12'0 0.0
2015-Aug-26 10:31N 59°57' E 030°12'0 0.0
2015-Aug-26 09:31N 59°57' E 030°12'0 0.0
2015-Aug-26 08:31N 59°57' E 030°12'  

Dump ship's entire track history